Timeline UpdatesTrip UpdatesNews PostsPvt PostsTravel TipsAdmin PostsConv PostsFollowed PostsChat RequestsBlog PostsPNR Posts

Disclaimer
Search
 
 
Thu Jul 24, 2014 23:14:03 ISTHomeTrainsΣChainsAtlasPNRForumGalleryNewsFAQTripsMembersLoginFeedback
No Recent News for this Train
Other Trains in the News **new
Latest...
.
Fri Jun 20, 2014 (04:04PM)
⇐ Return Journey: Train# 12522

12521/Rapti Sagar SF Express

Jul 02 2013 (6:46PM)
Change Departure Station:
Change Arrival Station:
Post a Train Travel TipPost a Train Travel Tip **new
Post a Comment/Question/Picture/VideoPost a Comment/Question/Picture/Video
Pantry/Catering
✓ Pantry Car Avbl
✓ Catering Avbl
Loco/Rake Reversals
LJN/Lucknow Junction (6); SRR/Shoranur Junction (7); MAS/Chennai Central (12);
RSA - Rake Sharing
NO RSA.
Rake/Coach Composition
LOCO-SLR-GS-A1-B1-B2-B3-PC-S1-S2-S3-S4-S5-S6-S7-S8-S9-S10-S11-S12-S13-S14-GS-GS-SLR
Loco
Loco Link: BJU to JHS - GD WDM 3A JHS to MAS...
Read more...
- ET WAP 4 MAS to ERS - AJJ WAM 4
News    PNR    Forum    Time-Table    Availability    Fare Chart    Map    Arr/Dep History    Trips    Gallery    ΣChains    X/O    Timeline    
Travel Time: 5h 0m    2 halts    Distance: 334 km    Avg Speed: 66 km/hr
Type: SuperFast
Zone: ECR/East Central
Departs @ 23:45
Platform# 8
   W   
Chennai Central/MAS 
Arrives @ 04:45 +1 night
Platform# ???
    T  
Salem Junction/SA 

2 halts. 71 intermediate Stations between Chennai Central and Salem Junction

Show ALL intermediate Stations  Show Old Time-Table

#CodeStation NameX/OArrivesAvgDepartsAvgHaltPFDay#KmSpeedElevZoneAddress
1BJUBarauni Junction (9)  -23:00-51-2735.35749mECRBegusarai, Bihar
2SPJSamastipur Junction (9)  23:53-23:58-5m--1-2684.76455mECRSamastipur, Bihar
3MFPMuzaffarpur Junction (6)  00:47-00:57-10m42-2632.66057mECRMuzaffarpur, Bihar
4HJPHajipur Junction (3)  01:51-01:52-1m22-2578.83355mECR06224-272230, Bihar
5SEESonpur Junction (4)X  02:02-02:05-3m--2-2573.25956mECRSaran, Bihar
6CPRChhapra Junction (6)  03:00-03:05-5m--2-2519.28258mNERDistt: Saran, Bihar
7SVSiwan Junction (4)  03:50-03:55-5m--2-2458.08470mNERSiwan, Bihar
8BTTBhatni Junction (5)  04:30-04:35-5m--2-2409.36673mNERDeoria, Uttar Pradesh
9DEOSDeoria Sadar (3)  04:54-04:55-1m--2-2388.53579mNERDeoria- 274001, Uttar Pradesh
10GKPGorakhpur Junction (10)X  06:20-06:35-15m92-2339.45584mNERGorakhpur 273001, Uttar Pradesh
11KLDKhalilabad (3)  07:12-07:13-1m32-2305.46686mNERKhalilabad- 272175, Uttar Pradesh
12BSTBasti (4)  07:40-07:45-5m12-2275.97390mNERBasti 272001, Uttar Pradesh
13MURMankapur Junction (5)O  08:35-08:37-2m12-2215.473104mNERDistrict Gonda, Uttar Pradesh
14GDGonda Junction (3)  09:00-09:05-5m12-2187.565110mNERGonda 271001, Uttar Pradesh
15BBKBarabanki Junction (4)  10:27-10:29-2m12-2098.253122mNRPin-225001, Uttar Pradesh
16BNZBadshahnagar (2)  10:57-10:58-1m12-2073.621116mNERLucknow, Uttar Pradesh
17LJNLucknow Junction (6)X11:30-11:50-20m12-2062.562126mNERLucknow, Uttar Pradesh
18ONUnnao Junction (5)X  12:42-12:43-1m52-2008.731129mNRUnnao, Uttar Pradesh
19CNBKanpur Central (10)  13:17-13:22-5m52-1991.363128mNCRKANPUR-208 001, Uttar Pradesh
20PHNPokhrayan (2)  14:18-14:19-1m12-1932.872133mNCRPukhrayan, Uttar Pradesh
21ORAIOrai (3)  14:59-15:00-1m--2-1885.065139mNCROrai(05162-252206), Uttar Pradesh
22JHSJhansi Junction (7)16:45-17:00-15m--2-1771.086259mNCRJhansi, Uttar Pradesh
23LARLalitpur (3)  18:03-18:04-1m12-1680.767373mNCRLalitpur, Uttar Pradesh
24BPLBhopal Junction (6)X  21:05-21:15-10m12-1479.252497mWCRBhopal, Madhya Pradesh
25ETItarsi Junction (7)  23:00-23:05-5m--2-1387.567329mWCRItarsi 461111, Madhya Pradesh
26GDYAGhoradongri (3)  00:08-00:09-1m--3-1317.148410mCRBetul, Madhya Pradesh
27BZUBetul (3)X  00:54-00:55-1m--3-1281.257644mCRBetul, Madhya Pradesh
28AMLAAmla Junction (5)XO  01:19-01:22-3m--3-1258.362733mCRAmla Distt. Betul, Madhya Pradesh
29PARPandhurna (2)X  02:24-02:25-1m--3-1194.760481mCRDistt: Chhindwara, Madhya Pradesh
30NGPNagpur Junction (8)  04:10-04:20-10m23-1090.378314mCRNagpur 440001, Maharashtra
31SEGMSewagram Junction (5)  05:19-05:20-1m--3-1014.169279mCRWardha, Maharashtra
32HGTHinganghat (3)  05:49-05:50-1m--3-981.077228mCRHinganghat, Maharashtra
33CDChandrapur Maharashtra (3)  06:57-06:58-1m--3-895.612194mCRChandrapur 442401, Maharashtra
34BPQBalharshah Junction (5)XO  08:05-08:35-30m--3-881.884188mCRBallarpur. Ph : 07172 - 240341, Maharashtra
35SKZRSirpur Kaghaznagar (3)  09:25-09:26-1m23-812.062181mSCRAdilabad Dist., Telangana
36BPABellampalli (3)  10:03-10:04-1m23-773.679205mSCRTel:.08735 223298, Telangana
37MCIManchiryal (3)  10:19-10:20-1m23-753.792159mSCRAdilabad Dist., Telangana
38RDMRamagundam (3)X  10:29-10:30-1m23-740.065170mSCRKarimnagar Dist. Ph : 08728 - 255237, Telangana
39WLWarangal (3)  12:03-12:05-2m13-638.871271mSCRWarangal., Telangana
40KMTKhammam (2)  13:36-13:37-1m13-531.245118mSCRKhammam 507001, Telangana
41BZAVijayawada Junction (10)X  15:50-16:05-15m73-430.97324mSCRVijayawada 520001, Andhra Pradesh
42CLXChirala (4)  17:18-17:19-1m--3-341.9678mSCRChirala, Andhra Pradesh
43OGLOngole (3)X  18:03-18:04-1m33-292.69312mSCROngole, Andhra Pradesh
44NLRNellore (4)  19:19-19:20-1m33-175.82521mSCRNellore, Andhra Pradesh
45GDRGudur Junction (3)  20:53-20:55-2m13-137.45719mSCRGudur, Andhra Pradesh
46MAS»Chennai Central (12)»X23:20-23:45-25m830.0659mSRChennai 600003, Tamil Nadu
47KPDKatpadi Junction (5)X  01:45-01:50-5m14129.459213mSRVellore 632007, Tamil Nadu
48JTJJolarpettai Junction (5)  03:15-03:20-5m--4213.385405mSRJolarpettai, Tamil Nadu
49SA•Salem Junction (6)•X  04:45-04:50-5m--4333.549283mSRSalem, Tamil Nadu
50EDErode Junction (4)X  06:05-06:15-10m24394.970175mSRErode ph.no: 0424-2256111, Tamil Nadu
51TUPTiruppur (2)  06:58-07:00-2m14445.161305mSRTiruppur. Ph:0421-2200450, Tamil Nadu
52CBECoimbatore Main Junction (6)X  07:50-07:55-5m14495.647416mSRCoimbatore 641001, Tamil Nadu
53PGTPalakkad Junction (4)XO  09:05-09:10-5m--4550.96684mSRPalghat Tel: 0491 2555231, Kerala
54OTPOttappalam (2)X  09:39-09:40-1m--4582.61930mSROttapalam, Kerala
55SRRShoranur Junction (7)X10:20-10:30-10m54595.55226mSRShoranur ph.no 0466-2222913, Kerala
56WKIWadakkanchery (2)X  10:49-10:50-1m14612.03640mSRWadackanchery, Kerala
57TCRThrissur (4)  11:17-11:20-3m14628.4596mSRThrissur Tel: 0487 2423150, Kerala
58IJKIrinjalakkuda (2)  11:44-11:45-1m--4652.24318mSRKalletumkara, Kerala
59CKIChalakkudy (3)X  11:54-11:55-1m14658.6659mSRPh: 0480- 2701368, Kerala
60AFKAngamaly for Kalady (3)  12:09-12:10-1m--4673.85016mSRPhone: 0484-2452340, Kerala
61AWYAluva (3)  12:21-12:23-2m14683.03212mSRPh: 0484-2624141, Kerala
62ERNErnakulam Town (North) (2)  12:55-12:57-2m24699.999mSRTel: 0484 2395198, Kerala
63ERSErnakulam Junction (South) (6)  13:15----4702.4-3mSRErnakulam 682016, Kerala
Scroll to Top
Scroll to Bottom